Time;durP1;ratioP1;P1;durP2;ratioP2;P2;SDS_P1;SDS_P2;PMS_P1;PMS_P2;Temp;Humidity;BMP_temperature;BMP_pressure;BME280_temperature;BME280_humidity;BME280_pressure;Samples;Min_cycle;Max_cycle;Signal;HPM_P1;HPM_P2
2022/07/25 00:00:49;;;;;;;4.45;3.40;;;;;;;18.85;66.23;99441.66;1746572;82;20991;-41
2022/07/25 00:03:14;;;;;;;4.58;3.33;;;;;;;18.81;66.47;99441.58;1746504;82;20960;-43
2022/07/25 00:05:40;;;;;;;7.08;3.30;;;;;;;18.78;66.62;99437.31;1746492;82;20987;-40
2022/07/25 00:08:06;;;;;;;6.05;3.65;;;;;;;18.75;67.13;99436.73;1746656;82;21019;-43
2022/07/25 00:10:32;;;;;;;6.62;3.55;;;;;;;18.72;67.55;99440.52;1746592;82;21375;-41
2022/07/25 00:12:58;;;;;;;6.72;4.00;;;;;;;18.72;67.24;99440.52;1746617;81;20956;-45
2022/07/25 00:15:23;;;;;;;5.12;3.70;;;;;;;18.71;67.18;99440.66;1746603;82;21050;-42
2022/07/25 00:17:49;;;;;;;6.37;3.92;;;;;;;18.71;67.50;99439.32;1746586;82;20988;-40
2022/07/25 00:20:15;;;;;;;4.75;3.62;;;;;;;18.68;67.79;99439.58;1746531;82;21035;-42
2022/07/25 00:22:41;;;;;;;5.37;3.80;;;;;;;18.65;67.90;99435.38;1725263;82;21016;-42
2022/07/25 00:25:07;;;;;;;5.85;3.98;;;;;;;18.66;67.83;99437.54;1746633;82;21023;-40
2022/07/25 00:27:33;;;;;;;6.40;3.90;;;;;;;18.64;67.90;99434.17;1746785;82;20971;-42
2022/07/25 00:29:59;;;;;;;6.65;3.70;;;;;;;18.63;68.00;99433.80;1746564;82;21140;-42
2022/07/25 00:32:25;;;;;;;5.20;3.67;;;;;;;18.61;68.22;99434.80;1746647;82;20987;-42
2022/07/25 00:34:50;;;;;;;4.37;3.62;;;;;;;18.61;68.51;99429.47;1746535;82;20991;-39
2022/07/25 00:37:16;;;;;;;4.90;4.00;;;;;;;18.63;68.33;99433.80;1746587;82;21493;-47
2022/07/25 00:39:42;;;;;;;4.35;3.50;;;;;;;18.61;68.09;99432.62;1746597;82;21434;-43
2022/07/25 00:42:08;;;;;;;4.67;3.45;;;;;;;18.63;68.28;99424.48;1746561;82;21024;-39
2022/07/25 00:44:33;;;;;;;10.88;3.65;;;;;;;18.61;68.71;99425.97;1746552;82;21073;-43
2022/07/25 00:47:00;;;;;;;6.10;3.27;;;;;;;18.59;68.31;99423.91;1746596;82;21023;-45
2022/07/25 00:49:26;;;;;;;5.20;3.40;;;;;;;18.58;68.44;99423.56;1746447;81;21055;-47
2022/07/25 00:51:53;;;;;;;5.73;3.50;;;;;;;18.57;68.75;99420.53;1746796;82;20972;-43
2022/07/25 00:54:19;;;;;;;4.00;3.55;;;;;;;18.56;68.62;99417.03;1746665;82;20952;-42
2022/07/25 00:56:46;;;;;;;3.30;3.00;;;;;;;18.56;68.29;99422.86;1746845;82;21457;-40
2022/07/25 00:59:12;;;;;;;3.87;3.30;;;;;;;18.55;68.00;99421.98;1746937;82;20991;-42
2022/07/25 01:01:38;;;;;;;4.00;3.40;;;;;;;18.54;68.22;99411.00;1746626;82;21019;-45
2022/07/25 01:04:05;;;;;;;3.20;2.90;;;;;;;18.54;68.31;99416.33;1746552;81;20988;-44
2022/07/25 01:06:32;;;;;;;5.25;3.10;;;;;;;18.54;67.94;99411.50;1746836;82;20956;-46
2022/07/25 01:08:58;;;;;;;3.75;3.15;;;;;;;18.50;68.05;99406.92;1746658;82;20972;-44
2022/07/25 01:11:24;;;;;;;4.17;3.42;;;;;;;18.48;68.17;99404.88;1746499;82;20980;-41
2022/07/25 01:13:51;;;;;;;5.50;3.62;;;;;;;18.47;67.67;99414.33;1746800;81;21096;-46
2022/07/25 01:16:17;;;;;;;3.77;3.40;;;;;;;18.44;67.62;99418.08;1746502;82;20975;-38
2022/07/25 01:18:43;;;;;;;5.42;3.92;;;;;;;18.42;67.77;99412.05;1746573;82;20979;-40
2022/07/25 01:21:09;;;;;;;7.45;3.58;;;;;;;18.39;68.14;99418.50;1746540;82;21012;-43
2022/07/25 01:23:35;;;;;;;3.72;3.40;;;;;;;18.36;68.03;99413.42;1746454;82;20999;-44
2022/07/25 01:26:01;;;;;;;3.60;3.10;;;;;;;18.33;68.68;99412.34;1746453;82;21018;-41
2022/07/25 01:28:27;;;;;;;5.35;3.85;;;;;;;18.32;68.55;99409.81;1746487;82;21031;-41
2022/07/25 01:30:53;;;;;;;4.83;3.80;;;;;;;18.30;68.59;99411.77;1746457;81;21019;-42
2022/07/25 01:33:21;;;;;;;6.75;3.45;;;;;;;18.29;68.68;99412.27;1746495;82;21018;-43
2022/07/25 01:35:48;;;;;;;5.37;3.50;;;;;;;18.30;68.68;99409.97;1746488;82;21027;-41
2022/07/25 01:38:15;;;;;;;5.87;3.60;;;;;;;18.31;68.50;99412.97;1746665;82;21441;-39
2022/07/25 01:40:42;;;;;;;6.53;3.80;;;;;;;18.30;69.11;99409.97;1746631;82;21065;-40
2022/07/25 01:43:09;;;;;;;5.58;3.52;;;;;;;18.29;69.22;99408.27;1746660;82;21019;-42
2022/07/25 01:45:35;;;;;;;7.87;4.07;;;;;;;18.30;68.98;99407.31;1746719;82;21611;-40
2022/07/25 01:48:00;;;;;;;8.75;4.30;;;;;;;18.31;68.93;99407.64;1748330;82;21477;-42
2022/07/25 01:50:26;;;;;;;4.62;3.72;;;;;;;18.31;68.96;99406.31;1754794;82;20979;-42
2022/07/25 01:52:52;;;;;;;3.72;3.42;;;;;;;18.31;69.05;99399.66;1754762;81;20979;-43
2022/07/25 01:55:18;;;;;;;4.22;3.70;;;;;;;18.29;69.04;99401.61;1754727;82;20979;-41
2022/07/25 01:57:44;;;;;;;4.30;3.67;;;;;;;18.31;68.66;99398.83;1754709;80;20976;-39
2022/07/25 02:00:12;;;;;;;3.90;3.50;;;;;;;18.31;69.17;99394.83;1754724;82;21014;-48
2022/07/25 02:02:41;;;;;;;5.85;3.50;;;;;;;18.29;69.04;99397.63;1754689;82;20987;-43
2022/07/25 02:05:08;;;;;;;4.45;3.75;;;;;;;18.29;68.81;99402.11;1754791;82;21014;-42
2022/07/25 02:07:34;;;;;;;3.90;3.50;;;;;;;18.26;68.74;99390.39;1754760;81;20966;-44
2022/07/25 02:10:00;;;;;;;5.42;3.65;;;;;;;18.25;68.79;99384.23;1754721;82;21002;-46
2022/07/25 02:12:26;;;;;;;4.42;3.62;;;;;;;18.23;68.79;99383.02;1754742;82;21480;-42
2022/07/25 02:14:52;;;;;;;10.18;3.92;;;;;;;18.20;68.86;99375.79;1754652;82;21010;-46
2022/07/25 02:17:18;;;;;;;4.12;3.30;;;;;;;18.19;69.18;99373.63;1754684;82;21011;-39
2022/07/25 02:19:44;;;;;;;4.70;3.60;;;;;;;18.18;69.01;99379.07;1754696;82;20952;-45
2022/07/25 02:22:09;;;;;;;4.60;3.50;;;;;;;18.15;68.55;99378.83;1754652;82;21002;-39
2022/07/25 02:24:36;;;;;;;4.62;3.72;;;;;;;18.15;68.33;99375.33;1754782;81;21322;-41
2022/07/25 02:27:03;;;;;;;4.58;3.83;;;;;;;18.12;68.36;99375.58;1754700;82;21326;-42
2022/07/25 02:29:29;;;;;;;;;;;;;;;18.09;68.52;99373.20;1757294;81;21495;-41
2022/07/25 02:31:55;;;;;;;4.42;3.60;;;;;;;18.03;70.11;99376.74;1754755;82;20110;-42
2022/07/25 02:34:20;;;;;;;6.30;3.47;;;;;;;18.01;68.60;99372.05;1754666;82;21030;-41
2022/07/25 02:36:46;;;;;;;6.87;3.62;;;;;;;17.99;69.01;99377.98;1754774;82;21026;-41
2022/07/25 02:39:12;;;;;;;4.70;4.28;;;;;;;17.98;69.20;99384.27;1754704;82;21019;-41
2022/07/25 02:43:28;;;;;;;4.83;4.12;;;;;;;17.95;70.67;99380.52;1818496;79;22582;-43
2022/07/25 02:45:53;;;;;;;6.20;4.37;;;;;;;17.92;69.75;99390.58;1792989;80;21098;-42
2022/07/25 02:48:19;;;;;;;5.47;3.85;;;;;;;17.90;69.81;99380.09;1793070;80;21592;-42
2022/07/25 02:50:45;;;;;;;7.65;3.95;;;;;;;17.89;70.19;99389.03;1793055;80;20963;-42
2022/07/25 02:53:11;;;;;;;5.50;4.45;;;;;;;17.89;70.27;99378.39;1793191;80;20998;-40
2022/07/25 02:55:37;;;;;;;6.12;4.05;;;;;;;17.90;69.83;99380.09;1793080;80;21488;-39
2022/07/25 02:58:03;;;;;;;4.47;3.42;;;;;;;17.90;70.06;99380.09;1793150;80;21508;-43
2022/07/25 03:00:29;;;;;;;4.53;3.50;;;;;;;17.91;69.89;99380.44;1793000;80;21442;-41
2022/07/25 03:02:55;;;;;;;9.98;3.87;;;;;;;17.92;69.58;99379.94;1793047;80;20991;-39
2022/07/25 03:05:21;;;;;;;4.73;3.67;;;;;;;17.89;69.54;99375.73;1793282;80;20990;-39
2022/07/25 03:07:47;;;;;;;5.47;3.58;;;;;;;17.90;69.55;99373.91;1793049;80;20987;-44
2022/07/25 03:10:13;;;;;;;3.95;3.30;;;;;;;17.94;69.51;99372.20;1793048;80;20986;-42
2022/07/25 03:12:40;;;;;;;8.95;3.40;;;;;;;17.96;69.56;99376.91;1793283;80;21431;-46
2022/07/25 03:15:08;;;;;;;3.65;3.27;;;;;;;17.98;69.72;99377.61;1793085;80;20963;-44
2022/07/25 03:17:33;;;;;;;;;;;;;;;18.00;69.72;99378.33;1795719;80;21527;-40
2022/07/25 03:19:59;;;;;;;3.95;3.52;;;;;;;18.00;69.54;99380.98;1793114;80;20441;-45
2022/07/25 03:22:25;;;;;;;4.90;3.60;;;;;;;18.01;69.66;99380.02;1793010;80;20991;-41
2022/07/25 03:24:52;;;;;;;4.67;3.47;;;;;;;18.05;69.67;99379.28;1793045;80;20986;-44
2022/07/25 03:27:19;;;;;;;5.20;3.13;;;;;;;18.07;69.42;99381.31;1793267;80;21508;-42
2022/07/25 03:29:44;;;;;;;3.60;3.25;;;;;;;18.09;69.19;99388.67;1793092;80;20993;-44
2022/07/25 03:32:10;;;;;;;5.65;3.35;;;;;;;18.11;68.91;99392.55;1792989;80;21103;-45
2022/07/25 03:34:36;;;;;;;5.12;3.70;;;;;;;18.12;68.80;99384.90;1793144;80;20971;-40
2022/07/25 03:37:03;;;;;;;5.08;3.70;;;;;;;18.09;68.55;99390.50;1793000;80;20998;-45
2022/07/25 03:39:29;;;;;;;6.58;3.20;;;;;;;18.08;68.66;99389.67;1793348;80;20960;-41
2022/07/25 03:41:55;;;;;;;9.15;3.62;;;;;;;18.10;68.34;99391.70;1787674;80;21599;-42
2022/07/25 03:44:23;;;;;;;6.08;3.72;;;;;;;18.09;68.55;99393.16;1772303;81;21519;-42
2022/07/25 03:46:49;;;;;;;4.15;3.70;;;;;;;18.10;68.22;99392.17;1772332;81;20956;-38
2022/07/25 03:49:15;;;;;;;4.62;3.95;;;;;;;18.10;68.20;99394.38;1772623;81;21511;-39
2022/07/25 03:51:42;;;;;;;6.35;3.75;;;;;;;18.09;68.37;99394.50;1772323;81;21527;-37
2022/07/25 03:54:12;;;;;;;4.12;3.50;;;;;;;18.10;68.28;99397.50;1772170;81;21000;-42
2022/07/25 03:56:45;;;;;;;6.80;4.03;;;;;;;18.09;68.33;99403.81;1771192;81;21465;-40
2022/07/25 03:59:15;;;;;;;5.72;3.72;;;;;;;18.09;68.30;99399.82;1771749;81;20956;-41
2022/07/25 04:01:43;;;;;;;7.00;4.00;;;;;;;18.08;67.86;99399.45;1771799;81;20956;-41
2022/07/25 04:04:09;;;;;;;4.62;3.47;;;;;;;18.08;68.42;99408.77;1771816;81;20984;-44
2022/07/25 04:06:36;;;;;;;6.43;3.80;;;;;;;18.07;68.84;99399.11;1772012;81;20968;-39
2022/07/25 04:09:03;;;;;;;7.28;3.90;;;;;;;18.04;68.70;99396.20;1771888;81;21481;-43
2022/07/25 04:11:29;;;;;;;4.40;3.62;;;;;;;18.06;68.58;99397.41;1771778;81;20996;-42
2022/07/25 04:13:56;;;;;;;6.20;3.60;;;;;;;18.07;68.59;99388.47;1771876;81;21050;-46
2022/07/25 04:16:23;;;;;;;7.83;3.65;;;;;;;18.08;68.84;99391.00;1771894;81;20995;-43
2022/07/25 04:18:50;;;;;;;5.47;4.20;;;;;;;18.13;68.78;99379.95;1772087;81;20991;-42
2022/07/25 04:21:16;;;;;;;10.28;4.35;;;;;;;18.18;69.03;99381.23;1771844;81;21555;-39
2022/07/25 04:23:42;;;;;;;8.00;4.12;;;;;;;18.23;68.42;99376.86;1771700;81;21000;-43
2022/07/25 04:26:08;;;;;;;5.92;3.83;;;;;;;18.29;68.61;99374.16;1771692;81;20999;-40
2022/07/25 04:28:34;;;;;;;8.73;4.03;;;;;;;18.34;68.51;99377.28;1771741;81;21025;-42
2022/07/25 04:31:00;;;;;;;4.65;4.00;;;;;;;18.38;68.16;99376.86;1771738;81;21023;-40
2022/07/25 04:33:26;;;;;;;8.90;4.12;;;;;;;18.44;68.04;99377.31;1771818;81;21483;-42
2022/07/25 04:35:52;;;;;;;5.67;3.77;;;;;;;18.49;67.72;99377.27;1771833;81;20995;-42
2022/07/25 04:38:18;;;;;;;8.08;3.95;;;;;;;18.54;67.55;99380.38;1771701;81;21453;-42
2022/07/25 04:40:45;;;;;;;5.40;3.72;;;;;;;18.57;67.34;99374.79;1771717;80;21027;-43
2022/07/25 04:43:10;;;;;;;9.68;4.30;;;;;;;18.59;67.54;99379.48;1771967;80;21541;-40
2022/07/25 04:45:36;;;;;;;8.95;3.75;;;;;;;18.61;67.13;99374.87;1771814;81;20992;-41
2022/07/25 04:48:03;;;;;;;6.35;3.83;;;;;;;18.63;67.67;99364.55;1771729;80;20991;-41
2022/07/25 04:50:29;;;;;;;6.97;3.83;;;;;;;18.61;66.72;99364.72;1771848;80;21053;-42
2022/07/25 04:52:55;;;;;;;5.05;3.40;;;;;;;18.63;66.70;99369.41;1771635;81;20964;-40
2022/07/25 04:55:21;;;;;;;5.72;3.25;;;;;;;18.66;66.85;99361.13;1771730;81;21024;-42
2022/07/25 04:57:47;;;;;;;8.70;2.98;;;;;;;18.68;66.84;99365.86;1771771;81;21509;-42
2022/07/25 05:00:14;;;;;;;85.32;6.97;;;;;;;18.69;66.91;99356.88;1771808;81;21424;-42
2022/07/25 05:02:40;;;;;;;9.83;3.17;;;;;;;18.72;66.08;99358.41;1771811;81;20960;-44
2022/07/25 05:05:08;;;;;;;2.90;2.55;;;;;;;18.70;65.88;99359.91;1771696;80;20984;-41
2022/07/25 05:07:35;;;;;;;2.67;2.47;;;;;;;18.71;65.76;99356.25;1771786;81;21000;-40
2022/07/25 05:10:01;;;;;;;;;;;;;;;18.72;65.81;99348.62;1774426;81;20987;-40
2022/07/25 05:12:26;;;;;;;4.15;3.20;;;;;;;18.72;66.04;99353.95;1771915;81;20109;-41
2022/07/25 05:14:53;;;;;;;4.78;2.90;;;;;;;18.78;65.69;99349.90;1771736;81;20988;-44
2022/07/25 05:17:19;;;;;;;7.03;2.90;;;;;;;18.78;65.82;99352.06;1771828;81;21035;-45
2022/07/25 05:19:45;;;;;;;8.70;3.40;;;;;;;18.78;66.09;99347.23;1771632;81;20968;-42
2022/07/25 05:22:11;;;;;;;4.70;3.08;;;;;;;18.84;65.97;99341.88;1771704;81;20964;-41
2022/07/25 05:24:37;;;;;;;7.58;3.12;;;;;;;18.88;65.85;99348.61;1771801;81;21027;-42
2022/07/25 05:27:03;;;;;;;8.50;3.20;;;;;;;18.90;65.67;99335.99;1771694;80;20953;-41
2022/07/25 05:29:30;;;;;;;4.67;3.13;;;;;;;18.95;65.68;99337.76;1771935;81;21473;-42
2022/07/25 05:31:56;;;;;;;9.03;4.05;;;;;;;18.96;65.80;99332.80;1771815;81;20988;-44
